sensor_id;sensor_type;location;lat;lon;timestamp;P1;durP1;ratioP1;P2;durP2;ratioP2
71610;SDS011;59459;51.172;6.682;2022-09-01T00:00:32;3.87;;;1.33;;
71610;SDS011;59459;51.172;6.682;2022-09-01T00:02:58;4.87;;;1.70;;
71610;SDS011;59459;51.172;6.682;2022-09-01T00:05:23;5.63;;;1.60;;
71610;SDS011;59459;51.172;6.682;2022-09-01T00:07:48;6.17;;;2.00;;
71610;SDS011;59459;51.172;6.682;2022-09-01T00:10:14;5.57;;;1.90;;
71610;SDS011;59459;51.172;6.682;2022-09-01T00:12:40;3.80;;;1.48;;
71610;SDS011;59459;51.172;6.682;2022-09-01T00:15:06;5.83;;;1.73;;
71610;SDS011;59459;51.172;6.682;2022-09-01T00:17:31;5.22;;;1.70;;
71610;SDS011;59459;51.172;6.682;2022-09-01T00:19:58;5.72;;;1.85;;
71610;SDS011;59459;51.172;6.682;2022-09-01T00:22:23;5.57;;;1.40;;
71610;SDS011;59459;51.172;6.682;2022-09-01T00:24:48;4.83;;;1.50;;
71610;SDS011;59459;51.172;6.682;2022-09-01T00:27:14;4.20;;;1.77;;
71610;SDS011;59459;51.172;6.682;2022-09-01T00:29:39;4.13;;;1.80;;
71610;SDS011;59459;51.172;6.682;2022-09-01T00:32:04;5.10;;;1.70;;
71610;SDS011;59459;51.172;6.682;2022-09-01T00:34:30;4.80;;;2.10;;
71610;SDS011;59459;51.172;6.682;2022-09-01T00:36:55;3.83;;;2.03;;
71610;SDS011;59459;51.172;6.682;2022-09-01T00:39:20;4.87;;;1.80;;
71610;SDS011;59459;51.172;6.682;2022-09-01T00:41:46;3.42;;;1.50;;
71610;SDS011;59459;51.172;6.682;2022-09-01T00:44:13;5.13;;;1.80;;
71610;SDS011;59459;51.172;6.682;2022-09-01T00:46:43;3.97;;;1.80;;
71610;SDS011;59459;51.172;6.682;2022-09-01T00:51:37;4.10;;;1.70;;
71610;SDS011;59459;51.172;6.682;2022-09-01T00:54:03;4.07;;;1.63;;
71610;SDS011;59459;51.172;6.682;2022-09-01T00:56:29;4.00;;;1.50;;
71610;SDS011;59459;51.172;6.682;2022-09-01T00:58:55;5.38;;;1.98;;
71610;SDS011;59459;51.172;6.682;2022-09-01T01:01:21;5.00;;;1.50;;
71610;SDS011;59459;51.172;6.682;2022-09-01T01:03:47;4.18;;;2.03;;
71610;SDS011;59459;51.172;6.682;2022-09-01T01:06:13;8.50;;;2.10;;
71610;SDS011;59459;51.172;6.682;2022-09-01T01:08:40;4.40;;;1.80;;
71610;SDS011;59459;51.172;6.682;2022-09-01T01:11:09;5.55;;;1.90;;
71610;SDS011;59459;51.172;6.682;2022-09-01T01:16:13;4.90;;;1.93;;
71610;SDS011;59459;51.172;6.682;2022-09-01T01:18:39;4.75;;;1.88;;
71610;SDS011;59459;51.172;6.682;2022-09-01T01:21:05;5.83;;;1.80;;
71610;SDS011;59459;51.172;6.682;2022-09-01T01:26:20;7.10;;;2.42;;
71610;SDS011;59459;51.172;6.682;2022-09-01T01:28:46;5.33;;;1.73;;
71610;SDS011;59459;51.172;6.682;2022-09-01T01:31:13;4.60;;;1.88;;
71610;SDS011;59459;51.172;6.682;2022-09-01T01:33:40;4.65;;;1.85;;
71610;SDS011;59459;51.172;6.682;2022-09-01T01:36:07;4.90;;;2.00;;
71610;SDS011;59459;51.172;6.682;2022-09-01T01:38:34;6.90;;;2.28;;
71610;SDS011;59459;51.172;6.682;2022-09-01T01:41:00;7.00;;;2.10;;
71610;SDS011;59459;51.172;6.682;2022-09-01T01:43:26;4.40;;;1.95;;
71610;SDS011;59459;51.172;6.682;2022-09-01T01:45:53;5.77;;;2.57;;
71610;SDS011;59459;51.172;6.682;2022-09-01T01:48:19;5.68;;;2.00;;
71610;SDS011;59459;51.172;6.682;2022-09-01T01:50:48;4.22;;;1.90;;
71610;SDS011;59459;51.172;6.682;2022-09-01T01:53:13;6.13;;;2.00;;
71610;SDS011;59459;51.172;6.682;2022-09-01T01:55:42;4.93;;;2.10;;
71610;SDS011;59459;51.172;6.682;2022-09-01T01:58:07;6.73;;;2.67;;
71610;SDS011;59459;51.172;6.682;2022-09-01T02:00:35;5.65;;;1.85;;
71610;SDS011;59459;51.172;6.682;2022-09-01T02:03:01;8.17;;;2.67;;
71610;SDS011;59459;51.172;6.682;2022-09-01T02:05:28;5.20;;;2.03;;
71610;SDS011;59459;51.172;6.682;2022-09-01T02:07:55;4.97;;;2.35;;
71610;SDS011;59459;51.172;6.682;2022-09-01T02:10:22;5.70;;;1.98;;
71610;SDS011;59459;51.172;6.682;2022-09-01T02:12:48;5.38;;;2.15;;
71610;SDS011;59459;51.172;6.682;2022-09-01T02:15:13;5.80;;;2.13;;
71610;SDS011;59459;51.172;6.682;2022-09-01T02:17:39;5.80;;;2.33;;
71610;SDS011;59459;51.172;6.682;2022-09-01T02:20:07;4.63;;;1.85;;
71610;SDS011;59459;51.172;6.682;2022-09-01T02:22:32;4.60;;;2.03;;
71610;SDS011;59459;51.172;6.682;2022-09-01T02:24:57;4.87;;;1.77;;
71610;SDS011;59459;51.172;6.682;2022-09-01T02:27:25;4.55;;;2.22;;
71610;SDS011;59459;51.172;6.682;2022-09-01T02:29:53;6.68;;;2.53;;
71610;SDS011;59459;51.172;6.682;2022-09-01T02:32:19;4.93;;;2.10;;
71610;SDS011;59459;51.172;6.682;2022-09-01T02:34:45;5.53;;;2.10;;
71610;SDS011;59459;51.172;6.682;2022-09-01T02:37:13;5.38;;;2.38;;
71610;SDS011;59459;51.172;6.682;2022-09-01T02:39:39;4.53;;;2.20;;
71610;SDS011;59459;51.172;6.682;2022-09-01T02:42:05;4.73;;;1.80;;
71610;SDS011;59459;51.172;6.682;2022-09-01T02:44:30;4.37;;;2.17;;
71610;SDS011;59459;51.172;6.682;2022-09-01T02:46:56;5.07;;;2.42;;
71610;SDS011;59459;51.172;6.682;2022-09-01T02:49:22;7.17;;;2.40;;
71610;SDS011;59459;51.172;6.682;2022-09-01T02:51:52;5.35;;;2.58;;
71610;SDS011;59459;51.172;6.682;2022-09-01T02:54:18;5.90;;;2.27;;
71610;SDS011;59459;51.172;6.682;2022-09-01T02:56:46;4.93;;;1.80;;
71610;SDS011;59459;51.172;6.682;2022-09-01T02:59:15;6.15;;;2.25;;
71610;SDS011;59459;51.172;6.682;2022-09-01T03:01:41;4.70;;;2.10;;
71610;SDS011;59459;51.172;6.682;2022-09-01T03:04:06;4.82;;;2.00;;
71610;SDS011;59459;51.172;6.682;2022-09-01T03:06:34;4.83;;;2.40;;
71610;SDS011;59459;51.172;6.682;2022-09-01T03:09:00;5.28;;;2.03;;
71610;SDS011;59459;51.172;6.682;2022-09-01T03:11:27;4.93;;;2.38;;
71610;SDS011;59459;51.172;6.682;2022-09-01T03:13:53;5.13;;;2.00;;
71610;SDS011;59459;51.172;6.682;2022-09-01T03:16:19;7.00;;;2.47;;
71610;SDS011;59459;51.172;6.682;2022-09-01T03:18:44;4.97;;;2.33;;
71610;SDS011;59459;51.172;6.682;2022-09-01T03:21:09;7.13;;;2.53;;
71610;SDS011;59459;51.172;6.682;2022-09-01T03:23:38;5.65;;;2.30;;
71610;SDS011;59459;51.172;6.682;2022-09-01T03:26:04;5.63;;;2.07;;
71610;SDS011;59459;51.172;6.682;2022-09-01T03:28:29;5.60;;;2.30;;
71610;SDS011;59459;51.172;6.682;2022-09-01T03:30:55;5.57;;;2.50;;
71610;SDS011;59459;51.172;6.682;2022-09-01T03:33:22;4.47;;;2.15;;
71610;SDS011;59459;51.172;6.682;2022-09-01T03:35:47;5.40;;;2.60;;
71610;SDS011;59459;51.172;6.682;2022-09-01T03:38:13;4.30;;;1.90;;
71610;SDS011;59459;51.172;6.682;2022-09-01T03:40:46;5.50;;;2.30;;
71610;SDS011;59459;51.172;6.682;2022-09-01T03:43:11;5.38;;;2.15;;
71610;SDS011;59459;51.172;6.682;2022-09-01T03:45:37;5.73;;;2.60;;
71610;SDS011;59459;51.172;6.682;2022-09-01T03:48:06;6.55;;;2.75;;
71610;SDS011;59459;51.172;6.682;2022-09-01T03:50:34;6.72;;;2.72;;
71610;SDS011;59459;51.172;6.682;2022-09-01T03:53:03;7.30;;;2.97;;
71610;SDS011;59459;51.172;6.682;2022-09-01T03:55:29;6.00;;;2.55;;
71610;SDS011;59459;51.172;6.682;2022-09-01T03:58:00;6.10;;;2.87;;
71610;SDS011;59459;51.172;6.682;2022-09-01T04:00:29;5.15;;;2.30;;
71610;SDS011;59459;51.172;6.682;2022-09-01T04:02:57;7.82;;;2.47;;
71610;SDS011;59459;51.172;6.682;2022-09-01T04:05:23;5.72;;;2.47;;
71610;SDS011;59459;51.172;6.682;2022-09-01T04:07:55;5.63;;;2.25;;
71610;SDS011;59459;51.172;6.682;2022-09-01T04:10:21;6.13;;;3.00;;
71610;SDS011;59459;51.172;6.682;2022-09-01T04:12:47;7.72;;;2.60;;
71610;SDS011;59459;51.172;6.682;2022-09-01T04:15:12;5.57;;;2.00;;
71610;SDS011;59459;51.172;6.682;2022-09-01T04:17:38;5.80;;;2.85;;
71610;SDS011;59459;51.172;6.682;2022-09-01T04:20:22;6.00;;;2.83;;
71610;SDS011;59459;51.172;6.682;2022-09-01T04:22:47;5.07;;;2.67;;
71610;SDS011;59459;51.172;6.682;2022-09-01T04:25:14;5.93;;;2.50;;
71610;SDS011;59459;51.172;6.682;2022-09-01T04:27:40;6.50;;;2.92;;
71610;SDS011;59459;51.172;6.682;2022-09-01T04:30:06;7.18;;;2.90;;
71610;SDS011;59459;51.172;6.682;2022-09-01T04:32:37;6.17;;;2.87;;
71610;SDS011;59459;51.172;6.682;2022-09-01T04:35:04;5.13;;;2.67;;
71610;SDS011;59459;51.172;6.682;2022-09-01T04:37:29;7.20;;;2.90;;
71610;SDS011;59459;51.172;6.682;2022-09-01T04:39:55;6.80;;;3.03;;
71610;SDS011;59459;51.172;6.682;2022-09-01T04:42:21;7.17;;;3.10;;
71610;SDS011;59459;51.172;6.682;2022-09-01T04:44:48;5.57;;;2.70;;
71610;SDS011;59459;51.172;6.682;2022-09-01T04:47:13;6.30;;;3.60;;
71610;SDS011;59459;51.172;6.682;2022-09-01T04:49:40;5.53;;;2.67;;
71610;SDS011;59459;51.172;6.682;2022-09-01T04:52:05;8.50;;;3.33;;
71610;SDS011;59459;51.172;6.682;2022-09-01T04:54:33;7.65;;;3.17;;
71610;SDS011;59459;51.172;6.682;2022-09-01T04:57:00;7.15;;;3.30;;
71610;SDS011;59459;51.172;6.682;2022-09-01T04:59:26;7.23;;;3.07;;
71610;SDS011;59459;51.172;6.682;2022-09-01T05:01:53;6.40;;;2.92;;
71610;SDS011;59459;51.172;6.682;2022-09-01T05:04:24;6.95;;;3.10;;
71610;SDS011;59459;51.172;6.682;2022-09-01T05:06:52;4.87;;;2.30;;
71610;SDS011;59459;51.172;6.682;2022-09-01T05:09:24;6.05;;;2.67;;
71610;SDS011;59459;51.172;6.682;2022-09-01T05:11:49;8.70;;;2.90;;
71610;SDS011;59459;51.172;6.682;2022-09-01T05:14:15;8.75;;;2.92;;
71610;SDS011;59459;51.172;6.682;2022-09-01T05:16:45;6.47;;;2.87;;
71610;SDS011;59459;51.172;6.682;2022-09-01T05:19:11;7.97;;;3.30;;
71610;SDS011;59459;51.172;6.682;2022-09-01T05:21:39;7.13;;;2.75;;
71610;SDS011;59459;51.172;6.682;2022-09-01T05:24:04;8.57;;;3.28;;
71610;SDS011;59459;51.172;6.682;2022-09-01T05:26:30;10.40;;;3.40;;
71610;SDS011;59459;51.172;6.682;2022-09-01T05:29:00;9.75;;;3.00;;
71610;SDS011;59459;51.172;6.682;2022-09-01T05:31:27;8.53;;;3.40;;
71610;SDS011;59459;51.172;6.682;2022-09-01T05:33:58;7.30;;;3.42;;
71610;SDS011;59459;51.172;6.682;2022-09-01T05:36:25;7.47;;;3.17;;
71610;SDS011;59459;51.172;6.682;2022-09-01T05:38:55;11.60;;;3.60;;
71610;SDS011;59459;51.172;6.682;2022-09-01T05:41:21;8.25;;;3.72;;
71610;SDS011;59459;51.172;6.682;2022-09-01T05:43:48;8.37;;;3.37;;
71610;SDS011;59459;51.172;6.682;2022-09-01T05:46:16;8.38;;;3.85;;
71610;SDS011;59459;51.172;6.682;2022-09-01T05:48:43;7.55;;;3.15;;
71610;SDS011;59459;51.172;6.682;2022-09-01T05:51:09;8.57;;;3.20;;
71610;SDS011;59459;51.172;6.682;2022-09-01T05:53:34;8.10;;;3.27;;
71610;SDS011;59459;51.172;6.682;2022-09-01T05:56:00;5.95;;;2.85;;
71610;SDS011;59459;51.172;6.682;2022-09-01T05:58:31;7.32;;;3.03;;
71610;SDS011;59459;51.172;6.682;2022-09-01T06:00:56;7.80;;;3.07;;
71610;SDS011;59459;51.172;6.682;2022-09-01T06:03:23;8.30;;;3.03;;
71610;SDS011;59459;51.172;6.682;2022-09-01T06:05:48;7.85;;;3.13;;
71610;SDS011;59459;51.172;6.682;2022-09-01T06:08:17;7.73;;;2.80;;
71610;SDS011;59459;51.172;6.682;2022-09-01T06:10:45;6.05;;;2.65;;
71610;SDS011;59459;51.172;6.682;2022-09-01T06:13:10;6.90;;;2.58;;
71610;SDS011;59459;51.172;6.682;2022-09-01T06:15:38;10.05;;;3.70;;
71610;SDS011;59459;51.172;6.682;2022-09-01T06:18:04;7.50;;;2.77;;
71610;SDS011;59459;51.172;6.682;2022-09-01T06:20:31;6.93;;;2.95;;
71610;SDS011;59459;51.172;6.682;2022-09-01T06:22:56;4.97;;;2.40;;
71610;SDS011;59459;51.172;6.682;2022-09-01T06:25:22;7.80;;;2.67;;
71610;SDS011;59459;51.172;6.682;2022-09-01T06:27:48;5.03;;;2.10;;
71610;SDS011;59459;51.172;6.682;2022-09-01T06:30:14;6.00;;;2.37;;
71610;SDS011;59459;51.172;6.682;2022-09-01T06:32:42;5.93;;;2.13;;
71610;SDS011;59459;51.172;6.682;2022-09-01T06:35:10;5.57;;;2.13;;
71610;SDS011;59459;51.172;6.682;2022-09-01T06:37:37;4.72;;;2.35;;
71610;SDS011;59459;51.172;6.682;2022-09-01T06:40:03;6.38;;;2.00;;
71610;SDS011;59459;51.172;6.682;2022-09-01T06:42:28;10.43;;;2.00;;
71610;SDS011;59459;51.172;6.682;2022-09-01T06:44:55;5.30;;;1.98;;
71610;SDS011;59459;51.172;6.682;2022-09-01T06:47:20;7.67;;;2.57;;
71610;SDS011;59459;51.172;6.682;2022-09-01T06:49:45;5.00;;;1.90;;
71610;SDS011;59459;51.172;6.682;2022-09-01T06:52:11;5.80;;;2.40;;
71610;SDS011;59459;51.172;6.682;2022-09-01T06:54:37;6.43;;;2.10;;
71610;SDS011;59459;51.172;6.682;2022-09-01T06:57:05;6.72;;;2.55;;
71610;SDS011;59459;51.172;6.682;2022-09-01T06:59:30;6.10;;;2.50;;
71610;SDS011;59459;51.172;6.682;2022-09-01T07:01:57;10.05;;;2.88;;
71610;SDS011;59459;51.172;6.682;2022-09-01T07:04:23;3.10;;;1.63;;
71610;SDS011;59459;51.172;6.682;2022-09-01T07:06:50;4.68;;;1.88;;
71610;SDS011;59459;51.172;6.682;2022-09-01T07:09:16;5.57;;;1.90;;
71610;SDS011;59459;51.172;6.682;2022-09-01T07:11:42;6.85;;;1.70;;
71610;SDS011;59459;51.172;6.682;2022-09-01T07:14:07;3.63;;;1.47;;
71610;SDS011;59459;51.172;6.682;2022-09-01T07:16:34;6.30;;;1.97;;
71610;SDS011;59459;51.172;6.682;2022-09-01T07:19:04;4.90;;;1.65;;
71610;SDS011;59459;51.172;6.682;2022-09-01T07:21:35;11.15;;;1.88;;
71610;SDS011;59459;51.172;6.682;2022-09-01T07:24:01;7.53;;;1.60;;
71610;SDS011;59459;51.172;6.682;2022-09-01T07:26:28;4.60;;;1.70;;
71610;SDS011;59459;51.172;6.682;2022-09-01T07:28:53;6.70;;;2.40;;
71610;SDS011;59459;51.172;6.682;2022-09-01T07:31:19;8.63;;;2.55;;
71610;SDS011;59459;51.172;6.682;2022-09-01T07:33:48;5.97;;;1.65;;
71610;SDS011;59459;51.172;6.682;2022-09-01T07:36:15;4.43;;;1.70;;
71610;SDS011;59459;51.172;6.682;2022-09-01T07:38:41;4.68;;;1.80;;
71610;SDS011;59459;51.172;6.682;2022-09-01T07:41:10;4.75;;;1.85;;
71610;SDS011;59459;51.172;6.682;2022-09-01T07:43:38;3.88;;;1.58;;
71610;SDS011;59459;51.172;6.682;2022-09-01T07:46:06;4.50;;;2.10;;
71610;SDS011;59459;51.172;6.682;2022-09-01T07:48:31;5.03;;;2.27;;
71610;SDS011;59459;51.172;6.682;2022-09-01T07:50:57;6.73;;;2.53;;
71610;SDS011;59459;51.172;6.682;2022-09-01T07:53:23;7.75;;;1.98;;
71610;SDS011;59459;51.172;6.682;2022-09-01T07:55:49;6.00;;;2.47;;
71610;SDS011;59459;51.172;6.682;2022-09-01T07:58:16;6.03;;;1.95;;
71610;SDS011;59459;51.172;6.682;2022-09-01T08:00:41;3.78;;;1.90;;
71610;SDS011;59459;51.172;6.682;2022-09-01T08:03:10;4.38;;;1.90;;
71610;SDS011;59459;51.172;6.682;2022-09-01T08:05:35;5.43;;;1.70;;
71610;SDS011;59459;51.172;6.682;2022-09-01T08:08:01;5.10;;;1.80;;
71610;SDS011;59459;51.172;6.682;2022-09-01T08:10:26;5.67;;;1.83;;
71610;SDS011;59459;51.172;6.682;2022-09-01T08:12:51;4.30;;;1.77;;
71610;SDS011;59459;51.172;6.682;2022-09-01T08:15:17;7.07;;;1.60;;
71610;SDS011;59459;51.172;6.682;2022-09-01T08:17:42;4.20;;;1.53;;
71610;SDS011;59459;51.172;6.682;2022-09-01T08:20:08;5.87;;;2.10;;
71610;SDS011;59459;51.172;6.682;2022-09-01T08:22:34;8.05;;;1.83;;
71610;SDS011;59459;51.172;6.682;2022-09-01T08:25:01;6.65;;;1.63;;
71610;SDS011;59459;51.172;6.682;2022-09-01T08:27:26;4.53;;;1.70;;
71610;SDS011;59459;51.172;6.682;2022-09-01T08:29:51;4.00;;;1.33;;
71610;SDS011;59459;51.172;6.682;2022-09-01T08:32:16;6.17;;;1.47;;
71610;SDS011;59459;51.172;6.682;2022-09-01T08:34:42;3.70;;;1.37;;
71610;SDS011;59459;51.172;6.682;2022-09-01T08:37:07;7.67;;;1.70;;
71610;SDS011;59459;51.172;6.682;2022-09-01T08:39:32;6.85;;;1.50;;
71610;SDS011;59459;51.172;6.682;2022-09-01T08:47:03;3.33;;;1.50;;
71610;SDS011;59459;51.172;6.682;2022-09-01T08:49:29;5.45;;;1.73;;
71610;SDS011;59459;51.172;6.682;2022-09-01T08:55:07;4.65;;;1.23;;
71610;SDS011;59459;51.172;6.682;2022-09-01T08:59:50;3.87;;;1.20;;
71610;SDS011;59459;51.172;6.682;2022-09-01T09:04:52;2.47;;;1.10;;
71610;SDS011;59459;51.172;6.682;2022-09-01T09:07:36;2.55;;;0.80;;
71610;SDS011;59459;51.172;6.682;2022-09-01T09:10:06;2.40;;;0.90;;
71610;SDS011;59459;51.172;6.682;2022-09-01T09:12:36;3.45;;;1.10;;
71610;SDS011;59459;51.172;6.682;2022-09-01T09:15:06;2.53;;;1.00;;
71610;SDS011;59459;51.172;6.682;2022-09-01T09:17:34;3.77;;;1.20;;
71610;SDS011;59459;51.172;6.682;2022-09-01T09:20:01;4.78;;;0.98;;
71610;SDS011;59459;51.172;6.682;2022-09-01T09:22:26;2.42;;;1.20;;
71610;SDS011;59459;51.172;6.682;2022-09-01T09:24:58;5.13;;;1.20;;
71610;SDS011;59459;51.172;6.682;2022-09-01T09:27:28;3.75;;;1.20;;
71610;SDS011;59459;51.172;6.682;2022-09-01T09:30:04;2.35;;;0.88;;
71610;SDS011;59459;51.172;6.682;2022-09-01T09:35:26;4.13;;;1.20;;
71610;SDS011;59459;51.172;6.682;2022-09-01T09:37:52;3.85;;;1.10;;
71610;SDS011;59459;51.172;6.682;2022-09-01T09:40:24;3.38;;;1.20;;
71610;SDS011;59459;51.172;6.682;2022-09-01T09:47:46;2.80;;;0.95;;
71610;SDS011;59459;51.172;6.682;2022-09-01T09:53:08;2.28;;;1.13;;
71610;SDS011;59459;51.172;6.682;2022-09-01T09:55:35;3.40;;;1.00;;
71610;SDS011;59459;51.172;6.682;2022-09-01T09:58:00;3.87;;;0.90;;
71610;SDS011;59459;51.172;6.682;2022-09-01T10:00:33;2.83;;;1.10;;
71610;SDS011;59459;51.172;6.682;2022-09-01T10:07:51;3.63;;;1.00;;
71610;SDS011;59459;51.172;6.682;2022-09-01T10:13:00;5.22;;;1.40;;
71610;SDS011;59459;51.172;6.682;2022-09-01T10:15:27;2.80;;;1.30;;
71610;SDS011;59459;51.172;6.682;2022-09-01T10:17:53;3.50;;;1.15;;
71610;SDS011;59459;51.172;6.682;2022-09-01T10:20:23;6.55;;;1.40;;
71610;SDS011;59459;51.172;6.682;2022-09-01T10:22:49;3.00;;;0.90;;
71610;SDS011;59459;51.172;6.682;2022-09-01T10:25:27;3.40;;;0.97;;
71610;SDS011;59459;51.172;6.682;2022-09-01T10:27:55;3.97;;;1.00;;
71610;SDS011;59459;51.172;6.682;2022-09-01T10:30:22;3.67;;;1.40;;
71610;SDS011;59459;51.172;6.682;2022-09-01T10:32:54;2.23;;;1.10;;
71610;SDS011;59459;51.172;6.682;2022-09-01T10:35:21;2.92;;;1.42;;
71610;SDS011;59459;51.172;6.682;2022-09-01T10:37:48;4.07;;;1.35;;
71610;SDS011;59459;51.172;6.682;2022-09-01T10:42:43;2.15;;;1.05;;
71610;SDS011;59459;51.172;6.682;2022-09-01T10:45:16;3.43;;;1.67;;
71610;SDS011;59459;51.172;6.682;2022-09-01T10:47:42;2.33;;;1.45;;
71610;SDS011;59459;51.172;6.682;2022-09-01T10:52:53;2.23;;;1.73;;
71610;SDS011;59459;51.172;6.682;2022-09-01T10:55:23;2.92;;;1.70;;
71610;SDS011;59459;51.172;6.682;2022-09-01T10:57:52;6.63;;;1.83;;
71610;SDS011;59459;51.172;6.682;2022-09-01T11:08:21;2.30;;;1.63;;
71610;SDS011;59459;51.172;6.682;2022-09-01T11:10:50;2.95;;;1.65;;
71610;SDS011;59459;51.172;6.682;2022-09-01T11:13:22;4.05;;;2.00;;
71610;SDS011;59459;51.172;6.682;2022-09-01T11:15:49;2.50;;;1.48;;
71610;SDS011;59459;51.172;6.682;2022-09-01T11:18:25;2.50;;;1.77;;
71610;SDS011;59459;51.172;6.682;2022-09-01T11:20:51;3.15;;;1.50;;
71610;SDS011;59459;51.172;6.682;2022-09-01T11:23:23;2.67;;;1.80;;
71610;SDS011;59459;51.172;6.682;2022-09-01T11:25:50;3.22;;;2.00;;
71610;SDS011;59459;51.172;6.682;2022-09-01T11:39:07;3.80;;;2.00;;
71610;SDS011;59459;51.172;6.682;2022-09-01T11:41:35;4.50;;;1.47;;
71610;SDS011;59459;51.172;6.682;2022-09-01T11:44:12;3.05;;;1.60;;
71610;SDS011;59459;51.172;6.682;2022-09-01T11:46:37;4.53;;;2.40;;
71610;SDS011;59459;51.172;6.682;2022-09-01T11:49:22;4.38;;;1.80;;
71610;SDS011;59459;51.172;6.682;2022-09-01T11:51:49;3.33;;;2.17;;
71610;SDS011;59459;51.172;6.682;2022-09-01T11:54:15;3.17;;;2.23;;
71610;SDS011;59459;51.172;6.682;2022-09-01T11:56:40;3.77;;;2.20;;
71610;SDS011;59459;51.172;6.682;2022-09-01T11:59:05;3.77;;;2.20;;
71610;SDS011;59459;51.172;6.682;2022-09-01T12:01:32;2.83;;;2.50;;
71610;SDS011;59459;51.172;6.682;2022-09-01T12:04:16;4.57;;;2.42;;
71610;SDS011;59459;51.172;6.682;2022-09-01T12:06:49;3.20;;;1.88;;
71610;SDS011;59459;51.172;6.682;2022-09-01T12:09:15;4.03;;;2.70;;
71610;SDS011;59459;51.172;6.682;2022-09-01T12:11:40;4.17;;;2.27;;
71610;SDS011;59459;51.172;6.682;2022-09-01T12:14:09;4.00;;;2.33;;
71610;SDS011;59459;51.172;6.682;2022-09-01T12:16:36;3.63;;;2.30;;
71610;SDS011;59459;51.172;6.682;2022-09-01T12:19:04;3.97;;;2.60;;
71610;SDS011;59459;51.172;6.682;2022-09-01T12:21:31;3.20;;;2.70;;
71610;SDS011;59459;51.172;6.682;2022-09-01T12:26:34;3.15;;;2.33;;
71610;SDS011;59459;51.172;6.682;2022-09-01T12:29:00;3.17;;;1.90;;
71610;SDS011;59459;51.172;6.682;2022-09-01T12:31:25;5.33;;;2.77;;
71610;SDS011;59459;51.172;6.682;2022-09-01T12:33:51;2.78;;;1.85;;
71610;SDS011;59459;51.172;6.682;2022-09-01T12:38:46;3.65;;;1.50;;
71610;SDS011;59459;51.172;6.682;2022-09-01T12:41:24;2.67;;;1.30;;
71610;SDS011;59459;51.172;6.682;2022-09-01T12:43:50;6.07;;;2.13;;
71610;SDS011;59459;51.172;6.682;2022-09-01T12:46:38;3.63;;;2.77;;
71610;SDS011;59459;51.172;6.682;2022-09-01T12:49:17;3.00;;;1.52;;
71610;SDS011;59459;51.172;6.682;2022-09-01T12:51:42;2.55;;;1.58;;
71610;SDS011;59459;51.172;6.682;2022-09-01T12:54:12;3.27;;;1.77;;
71610;SDS011;59459;51.172;6.682;2022-09-01T12:56:37;2.72;;;2.10;;
71610;SDS011;59459;51.172;6.682;2022-09-01T13:01:32;3.40;;;2.65;;
71610;SDS011;59459;51.172;6.682;2022-09-01T13:06:35;3.00;;;1.67;;
71610;SDS011;59459;51.172;6.682;2022-09-01T13:09:01;3.42;;;2.67;;
71610;SDS011;59459;51.172;6.682;2022-09-01T13:11:26;3.60;;;1.80;;
71610;SDS011;59459;51.172;6.682;2022-09-01T13:13:52;2.87;;;1.53;;
71610;SDS011;59459;51.172;6.682;2022-09-01T13:16:17;3.37;;;1.83;;
71610;SDS011;59459;51.172;6.682;2022-09-01T13:18:42;2.47;;;1.30;;
71610;SDS011;59459;51.172;6.682;2022-09-01T13:21:08;4.32;;;1.75;;
71610;SDS011;59459;51.172;6.682;2022-09-01T13:23:33;3.23;;;1.63;;
71610;SDS011;59459;51.172;6.682;2022-09-01T13:25:59;4.10;;;2.00;;
71610;SDS011;59459;51.172;6.682;2022-09-01T13:28:24;4.97;;;2.00;;
71610;SDS011;59459;51.172;6.682;2022-09-01T13:30:54;5.45;;;2.00;;
71610;SDS011;59459;51.172;6.682;2022-09-01T13:33:20;3.25;;;2.42;;
71610;SDS011;59459;51.172;6.682;2022-09-01T13:35:46;3.90;;;2.57;;
71610;SDS011;59459;51.172;6.682;2022-09-01T13:38:11;3.83;;;2.73;;
71610;SDS011;59459;51.172;6.682;2022-09-01T13:40:40;3.28;;;1.88;;
71610;SDS011;59459;51.172;6.682;2022-09-01T13:43:05;2.97;;;1.60;;
71610;SDS011;59459;51.172;6.682;2022-09-01T13:45:30;4.13;;;1.77;;
71610;SDS011;59459;51.172;6.682;2022-09-01T13:47:56;4.07;;;2.20;;
71610;SDS011;59459;51.172;6.682;2022-09-01T13:50:21;4.90;;;2.63;;
71610;SDS011;59459;51.172;6.682;2022-09-01T13:52:51;3.97;;;2.28;;
71610;SDS011;59459;51.172;6.682;2022-09-01T13:55:24;2.88;;;1.50;;
71610;SDS011;59459;51.172;6.682;2022-09-01T13:57:50;4.97;;;1.92;;
71610;SDS011;59459;51.172;6.682;2022-09-01T14:00:18;3.10;;;1.50;;
71610;SDS011;59459;51.172;6.682;2022-09-01T14:02:44;4.38;;;1.77;;
71610;SDS011;59459;51.172;6.682;2022-09-01T14:05:21;3.63;;;1.53;;
71610;SDS011;59459;51.172;6.682;2022-09-01T14:07:46;4.50;;;1.58;;
71610;SDS011;59459;51.172;6.682;2022-09-01T14:10:13;3.20;;;1.40;;
71610;SDS011;59459;51.172;6.682;2022-09-01T14:12:38;3.30;;;1.70;;
71610;SDS011;59459;51.172;6.682;2022-09-01T14:15:04;3.00;;;1.80;;
71610;SDS011;59459;51.172;6.682;2022-09-01T14:17:29;4.17;;;1.67;;
71610;SDS011;59459;51.172;6.682;2022-09-01T14:19:54;3.17;;;1.47;;
71610;SDS011;59459;51.172;6.682;2022-09-01T14:22:21;2.97;;;1.80;;
71610;SDS011;59459;51.172;6.682;2022-09-01T14:24:46;4.47;;;1.93;;
71610;SDS011;59459;51.172;6.682;2022-09-01T14:27:11;2.70;;;1.57;;
71610;SDS011;59459;51.172;6.682;2022-09-01T14:29:37;3.50;;;1.73;;
71610;SDS011;59459;51.172;6.682;2022-09-01T14:32:02;4.97;;;2.10;;
71610;SDS011;59459;51.172;6.682;2022-09-01T14:34:27;4.60;;;2.10;;
71610;SDS011;59459;51.172;6.682;2022-09-01T14:36:54;3.38;;;1.70;;
71610;SDS011;59459;51.172;6.682;2022-09-01T14:39:22;4.60;;;1.85;;
71610;SDS011;59459;51.172;6.682;2022-09-01T14:41:47;3.80;;;1.77;;
71610;SDS011;59459;51.172;6.682;2022-09-01T14:44:12;3.20;;;2.00;;
71610;SDS011;59459;51.172;6.682;2022-09-01T14:46:37;4.47;;;2.00;;
71610;SDS011;59459;51.172;6.682;2022-09-01T14:49:03;5.30;;;2.33;;
71610;SDS011;59459;51.172;6.682;2022-09-01T14:51:29;3.40;;;2.10;;
71610;SDS011;59459;51.172;6.682;2022-09-01T14:53:55;5.03;;;2.20;;
71610;SDS011;59459;51.172;6.682;2022-09-01T14:56:21;5.20;;;2.03;;
71610;SDS011;59459;51.172;6.682;2022-09-01T14:58:46;4.07;;;2.00;;
71610;SDS011;59459;51.172;6.682;2022-09-01T15:01:13;3.20;;;1.70;;
71610;SDS011;59459;51.172;6.682;2022-09-01T15:03:39;4.00;;;1.98;;
71610;SDS011;59459;51.172;6.682;2022-09-01T15:06:04;5.43;;;2.07;;
71610;SDS011;59459;51.172;6.682;2022-09-01T15:08:29;3.93;;;1.80;;
71610;SDS011;59459;51.172;6.682;2022-09-01T15:10:55;6.30;;;2.60;;
71610;SDS011;59459;51.172;6.682;2022-09-01T15:13:20;3.20;;;2.00;;
71610;SDS011;59459;51.172;6.682;2022-09-01T15:15:45;4.13;;;2.30;;
71610;SDS011;59459;51.172;6.682;2022-09-01T15:18:10;4.77;;;2.40;;
71610;SDS011;59459;51.172;6.682;2022-09-01T15:20:42;6.20;;;2.47;;
71610;SDS011;59459;51.172;6.682;2022-09-01T15:23:11;3.72;;;1.90;;
71610;SDS011;59459;51.172;6.682;2022-09-01T15:25:37;3.35;;;2.05;;
71610;SDS011;59459;51.172;6.682;2022-09-01T15:28:02;4.93;;;2.27;;
71610;SDS011;59459;51.172;6.682;2022-09-01T15:30:28;4.78;;;2.03;;
71610;SDS011;59459;51.172;6.682;2022-09-01T15:32:53;4.43;;;2.20;;
71610;SDS011;59459;51.172;6.682;2022-09-01T15:35:19;5.80;;;2.37;;
71610;SDS011;59459;51.172;6.682;2022-09-01T15:37:49;4.65;;;1.92;;
71610;SDS011;59459;51.172;6.682;2022-09-01T15:40:14;4.90;;;2.45;;
71610;SDS011;59459;51.172;6.682;2022-09-01T15:42:40;4.73;;;2.20;;
71610;SDS011;59459;51.172;6.682;2022-09-01T15:45:06;3.70;;;2.07;;
71610;SDS011;59459;51.172;6.682;2022-09-01T15:47:32;3.28;;;2.00;;
71610;SDS011;59459;51.172;6.682;2022-09-01T15:49:57;4.53;;;2.10;;
71610;SDS011;59459;51.172;6.682;2022-09-01T15:52:22;4.23;;;2.40;;
71610;SDS011;59459;51.172;6.682;2022-09-01T15:54:47;7.17;;;2.23;;
71610;SDS011;59459;51.172;6.682;2022-09-01T15:57:13;3.53;;;2.20;;
71610;SDS011;59459;51.172;6.682;2022-09-01T15:59:38;4.83;;;2.23;;